Time;durP1;ratioP1;P1;durP2;ratioP2;P2;SDS_P1;SDS_P2;PMS_P1;PMS_P2;Temp;Humidity;BMP_temperature;BMP_pressure;BME280_temperature;BME280_humidity;BME280_pressure;Samples;Min_cycle;Max_cycle;Signal;HPM_P1;HPM_P2
2020/12/11 00:00:31;;;;;;;1.70;0.30;;;4.10;99.90;;;;;;5026044;28;20265;-64
2020/12/11 00:02:58;;;;;;;1.70;0.20;;;4.10;99.90;;;;;;5024161;28;20218;-63
2020/12/11 00:05:23;;;;;;;1.70;0.20;;;4.10;99.90;;;;;;5030853;28;20185;-63
2020/12/11 00:07:49;;;;;;;1.70;0.20;;;4.10;99.90;;;;;;5024053;28;20190;-63
2020/12/11 00:10:14;;;;;;;1.70;0.20;;;4.10;99.90;;;;;;5030599;28;20245;-63
2020/12/11 00:12:41;;;;;;;1.70;0.20;;;4.00;99.90;;;;;;5032822;28;20198;-63
2020/12/11 00:15:08;;;;;;;1.70;0.20;;;4.10;99.90;;;;;;5020704;28;20440;-63
2020/12/11 00:17:35;;;;;;;1.70;0.20;;;4.10;99.90;;;;;;5022938;28;20182;-63
2020/12/11 00:20:01;;;;;;;1.70;0.20;;;4.10;99.90;;;;;;5028369;28;20181;-62
2020/12/11 00:22:27;;;;;;;1.80;0.35;;;4.10;99.90;;;;;;5026344;28;20789;-62
2020/12/11 00:24:53;;;;;;;1.70;0.20;;;4.20;99.90;;;;;;5030104;28;20197;-63
2020/12/11 00:27:19;;;;;;;1.70;0.20;;;4.10;99.90;;;;;;5024077;28;20269;-63
2020/12/11 00:29:45;;;;;;;1.70;0.20;;;4.10;99.90;;;;;;5023436;28;20213;-63
2020/12/11 00:32:10;;;;;;;1.70;0.20;;;4.10;99.90;;;;;;5025571;28;20543;-63
2020/12/11 00:34:36;;;;;;;1.70;0.20;;;4.10;99.90;;;;;;5023768;28;20591;-63
2020/12/11 00:37:02;;;;;;;1.70;0.20;;;4.20;99.90;;;;;;5025966;28;20775;-63
2020/12/11 00:39:28;;;;;;;1.70;0.20;;;4.20;99.90;;;;;;5028478;28;20190;-63
2020/12/11 00:41:54;;;;;;;1.70;0.20;;;4.10;99.90;;;;;;5021206;28;20300;-63
2020/12/11 00:44:20;;;;;;;1.70;0.20;;;4.10;99.90;;;;;;5024932;28;20171;-63
2020/12/11 00:46:46;;;;;;;1.70;0.20;;;4.00;99.90;;;;;;5030103;28;24134;-63
2020/12/11 00:49:12;;;;;;;1.70;0.20;;;4.00;99.90;;;;;;5028670;28;20240;-63
2020/12/11 00:51:37;;;;;;;1.73;0.20;;;4.00;99.90;;;;;;5026148;28;20206;-63
2020/12/11 00:54:03;;;;;;;1.70;0.20;;;4.00;99.90;;;;;;5025220;28;20245;-63
2020/12/11 00:56:28;;;;;;;1.80;0.43;;;4.00;99.90;;;;;;5019512;28;20225;-63
2020/12/11 00:58:54;;;;;;;1.70;0.20;;;4.00;99.90;;;;;;5025645;28;20235;-63
2020/12/11 01:01:19;;;;;;;1.70;0.20;;;4.00;99.90;;;;;;5022609;28;20205;-62
2020/12/11 01:03:45;;;;;;;1.70;0.20;;;3.90;99.90;;;;;;5021242;28;20214;-63
2020/12/11 01:06:11;;;;;;;1.70;0.20;;;3.90;99.90;;;;;;5028927;28;20182;-63
2020/12/11 01:08:36;;;;;;;1.70;0.20;;;3.90;99.90;;;;;;5023706;28;20737;-63
2020/12/11 01:11:02;;;;;;;1.70;0.20;;;3.90;99.90;;;;;;5022389;28;20673;-63
2020/12/11 01:13:27;;;;;;;1.70;0.23;;;3.90;99.90;;;;;;5024596;28;20218;-63
2020/12/11 01:15:53;;;;;;;3.20;1.13;;;3.90;99.90;;;;;;5028613;28;20220;-63
2020/12/11 01:18:19;;;;;;;1.70;0.20;;;3.90;99.90;;;;;;5025884;28;20182;-63
2020/12/11 01:20:44;;;;;;;1.70;0.20;;;3.90;99.90;;;;;;5020039;28;20436;-63
2020/12/11 01:23:10;;;;;;;1.70;0.20;;;3.80;99.90;;;;;;5024074;28;20715;-63
2020/12/11 01:25:36;;;;;;;1.70;0.20;;;3.80;99.90;;;;;;5024908;28;20202;-63
2020/12/11 01:28:01;;;;;;;1.70;0.30;;;3.80;99.90;;;;;;5028730;28;20285;-63
2020/12/11 01:30:27;;;;;;;1.70;0.20;;;3.80;99.90;;;;;;5020063;28;20329;-63
2020/12/11 01:32:52;;;;;;;1.70;0.20;;;3.90;99.90;;;;;;5027003;28;20233;-63
2020/12/11 01:35:18;;;;;;;1.70;0.20;;;3.90;99.90;;;;;;5024047;28;20178;-63
2020/12/11 01:37:43;;;;;;;1.70;0.20;;;3.90;99.90;;;;;;5023785;28;20658;-63
2020/12/11 01:40:09;;;;;;;1.70;0.20;;;4.00;99.90;;;;;;5028287;28;20651;-63
2020/12/11 01:42:34;;;;;;;1.70;0.20;;;4.00;99.90;;;;;;5026449;28;20216;-63
2020/12/11 01:45:00;;;;;;;1.70;0.20;;;4.00;99.90;;;;;;5028596;28;20190;-63
2020/12/11 01:47:25;;;;;;;1.70;0.20;;;4.00;99.90;;;;;;5029864;28;20187;-63
2020/12/11 01:49:52;;;;;;;1.70;0.20;;;4.00;99.90;;;;;;5034237;28;20193;-63
2020/12/11 01:52:19;;;;;;;1.70;0.20;;;3.90;99.90;;;;;;5028068;28;20206;-65
2020/12/11 01:54:46;;;;;;;1.70;0.20;;;4.00;99.90;;;;;;5030577;28;20214;-63
2020/12/11 01:57:34;;;;;;;1.70;0.20;;;4.00;99.90;;;;;;5024801;28;20194;-63
2020/12/11 02:00:05;;;;;;;1.70;0.20;;;4.00;99.90;;;;;;5028042;28;20275;-62
2020/12/11 02:02:35;;;;;;;1.70;0.20;;;4.00;99.90;;;;;;5032101;28;20301;-63
2020/12/11 02:05:03;;;;;;;1.70;0.20;;;3.90;99.90;;;;;;5029992;28;20214;-63
2020/12/11 02:07:28;;;;;;;1.70;0.20;;;4.00;99.90;;;;;;5022855;28;20212;-63
2020/12/11 02:09:54;;;;;;;1.70;0.20;;;4.00;99.90;;;;;;5028733;28;20187;-62
2020/12/11 02:12:19;;;;;;;1.70;0.20;;;4.00;99.90;;;;;;5032072;28;20240;-63
2020/12/11 02:14:48;;;;;;;1.70;0.20;;;4.00;99.90;;;;;;5028115;28;20254;-63
2020/12/11 02:17:13;;;;;;;1.73;0.20;;;3.90;99.90;;;;;;5034264;28;20220;-63
2020/12/11 02:19:39;;;;;;;1.70;0.20;;;3.80;99.90;;;;;;5030467;28;20186;-63
2020/12/11 02:22:06;;;;;;;1.70;0.20;;;3.80;99.90;;;;;;5028688;28;20202;-63
2020/12/11 02:24:32;;;;;;;1.70;0.20;;;3.80;99.90;;;;;;5029699;28;20178;-63
2020/12/11 02:26:59;;;;;;;1.70;0.20;;;3.80;99.90;;;;;;5027753;28;20184;-63
2020/12/11 02:29:25;;;;;;;1.73;0.20;;;3.70;99.90;;;;;;5027651;28;20236;-63
2020/12/11 02:31:52;;;;;;;1.70;0.20;;;3.60;99.90;;;;;;5033203;28;20886;-63
2020/12/11 02:34:18;;;;;;;1.70;0.20;;;3.60;99.90;;;;;;5026882;28;20600;-63
2020/12/11 02:36:44;;;;;;;1.70;0.20;;;3.60;99.90;;;;;;5024244;28;20200;-65
2020/12/11 02:39:10;;;;;;;1.70;0.20;;;3.50;99.90;;;;;;5038543;28;20178;-62
2020/12/11 02:41:35;;;;;;;1.70;0.20;;;3.50;99.90;;;;;;5025188;28;20182;-63
2020/12/11 02:44:01;;;;;;;1.70;0.20;;;3.60;99.90;;;;;;5028634;28;20217;-63
2020/12/11 02:46:28;;;;;;;1.70;0.20;;;3.60;99.90;;;;;;5031934;28;20197;-63
2020/12/11 02:48:54;;;;;;;1.70;0.20;;;3.60;99.90;;;;;;5026314;28;20257;-63
2020/12/11 02:51:20;;;;;;;1.70;0.20;;;3.60;99.90;;;;;;5029133;28;20209;-63
2020/12/11 02:53:49;;;;;;;1.70;0.20;;;3.60;99.90;;;;;;5027087;28;20209;-63
2020/12/11 02:56:17;;;;;;;1.70;0.20;;;3.60;99.90;;;;;;5031987;28;20429;-63
2020/12/11 02:58:43;;;;;;;1.70;0.20;;;3.60;99.90;;;;;;5030924;28;20602;-63
2020/12/11 03:01:09;;;;;;;1.70;0.20;;;3.60;99.90;;;;;;5030803;28;20276;-63
2020/12/11 03:03:34;;;;;;;1.70;0.20;;;3.60;99.90;;;;;;5029162;28;20246;-63
2020/12/11 03:06:00;;;;;;;1.70;0.20;;;3.60;99.90;;;;;;5031432;28;20190;-63
2020/12/11 03:08:25;;;;;;;1.70;0.20;;;3.60;99.90;;;;;;5023828;28;20194;-63
2020/12/11 03:10:50;;;;;;;1.70;0.20;;;3.50;99.90;;;;;;5029984;28;20623;-63
2020/12/11 03:13:16;;;;;;;1.70;0.20;;;3.50;99.90;;;;;;5025244;28;20209;-63
2020/12/11 03:15:41;;;;;;;1.70;0.20;;;3.40;99.90;;;;;;5024381;28;20562;-63
2020/12/11 03:18:07;;;;;;;1.70;0.20;;;3.50;99.90;;;;;;5030094;28;20218;-63
2020/12/11 03:20:32;;;;;;;1.70;0.20;;;3.40;99.90;;;;;;5025333;28;20548;-63
2020/12/11 03:22:58;;;;;;;1.70;0.20;;;3.40;99.90;;;;;;5027793;28;20206;-63
2020/12/11 03:25:23;;;;;;;1.70;0.20;;;3.50;99.90;;;;;;5029378;28;20187;-63
2020/12/11 03:27:49;;;;;;;1.80;0.43;;;3.50;99.90;;;;;;5033087;28;20186;-63
2020/12/11 03:30:15;;;;;;;1.70;0.20;;;3.50;99.90;;;;;;5030018;28;20312;-63
2020/12/11 03:32:40;;;;;;;1.70;0.20;;;3.50;99.90;;;;;;5030919;28;20235;-63
2020/12/11 03:35:06;;;;;;;1.70;0.20;;;3.40;99.90;;;;;;5029097;28;20182;-63
2020/12/11 03:37:32;;;;;;;1.70;0.20;;;3.50;99.90;;;;;;5027949;28;20241;-63
2020/12/11 03:39:58;;;;;;;1.70;0.20;;;3.40;99.90;;;;;;5025956;28;20244;-63
2020/12/11 03:42:23;;;;;;;1.70;0.20;;;3.40;99.90;;;;;;5023463;28;20206;-63
2020/12/11 03:44:49;;;;;;;1.70;0.20;;;3.40;99.90;;;;;;5026914;28;20175;-63
2020/12/11 03:47:14;;;;;;;1.70;0.20;;;3.30;99.90;;;;;;5030884;28;20186;-63
2020/12/11 03:49:40;;;;;;;1.70;0.20;;;3.40;99.90;;;;;;5025130;28;20182;-63
2020/12/11 03:52:05;;;;;;;1.70;0.20;;;3.40;99.90;;;;;;5029382;28;20209;-63
2020/12/11 03:54:31;;;;;;;1.70;0.20;;;3.40;99.90;;;;;;5027048;28;20568;-63
2020/12/11 03:56:56;;;;;;;1.70;0.20;;;3.40;99.90;;;;;;5025315;28;20174;-64
2020/12/11 03:59:22;;;;;;;1.70;0.20;;;3.40;99.90;;;;;;5030362;28;20189;-63
2020/12/11 04:01:47;;;;;;;1.70;0.20;;;3.40;99.90;;;;;;5023849;28;20667;-63
2020/12/11 04:04:13;;;;;;;1.70;0.20;;;3.30;99.90;;;;;;5026648;28;20194;-63
2020/12/11 04:06:38;;;;;;;1.70;0.20;;;3.30;99.90;;;;;;5028877;28;20554;-63
2020/12/11 04:09:04;;;;;;;1.70;0.20;;;3.20;99.90;;;;;;5028651;28;20227;-63
2020/12/11 04:11:30;;;;;;;1.70;0.20;;;3.20;99.90;;;;;;5028073;28;20208;-63
2020/12/11 04:13:55;;;;;;;1.70;0.20;;;3.20;99.90;;;;;;5028769;28;20465;-63
2020/12/11 04:16:21;;;;;;;1.70;0.20;;;3.20;99.90;;;;;;5027950;28;20552;-62
2020/12/11 04:18:46;;;;;;;1.70;0.20;;;3.10;99.90;;;;;;5022041;28;20220;-63
2020/12/11 04:21:13;;;;;;;1.70;0.20;;;3.10;99.90;;;;;;5032878;28;20190;-62
2020/12/11 04:23:40;;;;;;;1.70;0.20;;;3.10;99.90;;;;;;5030686;28;20696;-63
2020/12/11 04:26:05;;;;;;;1.70;0.20;;;3.10;99.90;;;;;;5029662;28;20248;-63
2020/12/11 04:28:31;;;;;;;1.70;0.20;;;3.10;99.90;;;;;;5034360;28;20186;-63
2020/12/11 04:30:57;;;;;;;1.70;0.20;;;3.10;99.90;;;;;;5039987;28;20190;-63
2020/12/11 04:33:22;;;;;;;1.70;0.20;;;3.10;99.90;;;;;;5042515;28;20236;-63
2020/12/11 04:35:47;;;;;;;1.77;0.20;;;3.10;99.90;;;;;;5045603;28;20197;-63
2020/12/11 04:38:13;;;;;;;1.70;0.20;;;3.10;99.90;;;;;;5040980;28;20182;-63
2020/12/11 04:40:39;;;;;;;1.70;0.30;;;3.10;99.90;;;;;;5044135;28;20178;-64
2020/12/11 04:43:09;;;;;;;1.73;0.20;;;3.00;99.90;;;;;;5044986;28;20259;-63
2020/12/11 04:45:37;;;;;;;1.70;0.20;;;2.90;99.90;;;;;;5038270;28;20190;-63
2020/12/11 04:48:03;;;;;;;1.73;0.20;;;3.00;99.90;;;;;;5034370;28;20193;-62
2020/12/11 04:50:29;;;;;;;1.70;0.20;;;2.90;99.90;;;;;;5025742;28;20268;-63
2020/12/11 04:52:57;;;;;;;1.70;0.30;;;3.00;99.90;;;;;;5027553;28;20198;-62
2020/12/11 04:55:22;;;;;;;1.73;0.20;;;3.00;99.90;;;;;;5029551;28;20178;-63
2020/12/11 04:57:50;;;;;;;1.70;0.20;;;2.90;99.90;;;;;;5025613;28;20197;-63
2020/12/11 05:00:17;;;;;;;1.70;0.20;;;3.00;99.90;;;;;;5028149;28;20669;-62
2020/12/11 05:02:44;;;;;;;1.70;0.20;;;3.00;99.90;;;;;;5025090;28;20228;-63
2020/12/11 05:05:11;;;;;;;1.70;0.20;;;2.90;99.90;;;;;;5022732;28;20221;-62
2020/12/11 05:07:37;;;;;;;1.73;0.20;;;2.90;99.90;;;;;;5029034;28;20190;-63
2020/12/11 05:10:05;;;;;;;1.70;0.20;;;2.90;99.90;;;;;;5022692;28;20253;-63
2020/12/11 05:12:31;;;;;;;1.70;0.20;;;2.90;99.90;;;;;;5021850;28;20207;-63
2020/12/11 05:15:02;;;;;;;1.70;0.20;;;2.90;99.90;;;;;;5029077;28;20266;-63
2020/12/11 05:17:30;;;;;;;1.70;0.20;;;2.90;99.90;;;;;;5032123;28;21034;-63
2020/12/11 05:19:57;;;;;;;1.70;0.20;;;2.90;99.90;;;;;;5029918;28;20182;-62
2020/12/11 05:22:25;;;;;;;1.73;0.20;;;2.90;99.90;;;;;;5031451;28;20556;-63
2020/12/11 05:24:56;;;;;;;1.70;0.20;;;2.80;99.90;;;;;;5030911;28;20710;-63
2020/12/11 05:27:41;;;;;;;1.70;0.20;;;2.80;99.90;;;;;;5024264;28;20209;-62
2020/12/11 05:30:09;;;;;;;1.70;0.20;;;2.80;99.90;;;;;;5022322;28;20178;-63
2020/12/11 05:32:47;;;;;;;1.70;0.20;;;2.80;99.90;;;;;;5023275;28;20297;-63
2020/12/11 05:35:18;;;;;;;1.70;0.20;;;2.80;99.90;;;;;;5027182;28;20190;-63
2020/12/11 05:38:04;;;;;;;1.70;0.20;;;2.80;99.90;;;;;;5031551;28;20185;-63
2020/12/11 05:40:41;;;;;;;1.70;0.20;;;2.80;99.90;;;;;;5034251;28;20178;-63
2020/12/11 05:43:08;;;;;;;1.70;0.20;;;2.80;99.90;;;;;;5034847;28;20216;-63
2020/12/11 05:45:50;;;;;;;1.70;0.20;;;2.80;99.90;;;;;;5028615;28;20179;-63
2020/12/11 05:48:16;;;;;;;1.70;0.20;;;2.80;99.90;;;;;;5029175;28;20541;-62
2020/12/11 05:50:42;;;;;;;1.70;0.20;;;2.70;99.90;;;;;;5033088;28;20174;-63
2020/12/11 05:53:07;;;;;;;1.92;0.88;;;2.80;99.90;;;;;;5031103;28;20225;-63
2020/12/11 05:55:33;;;;;;;1.70;0.20;;;2.70;99.90;;;;;;5030511;28;20174;-63
2020/12/11 05:57:59;;;;;;;1.70;0.20;;;2.70;99.90;;;;;;5023110;28;20183;-63
2020/12/11 06:00:26;;;;;;;1.70;0.20;;;2.70;99.90;;;;;;5030694;28;20200;-64
2020/12/11 06:02:53;;;;;;;1.70;0.20;;;2.80;99.90;;;;;;5025917;28;20982;-63
2020/12/11 06:05:24;;;;;;;1.70;0.20;;;2.80;99.90;;;;;;5027963;28;20244;-63
2020/12/11 06:07:51;;;;;;;3.10;2.80;;;2.80;99.90;;;;;;5023032;28;20540;-63
2020/12/11 06:10:19;;;;;;;1.70;0.20;;;2.80;99.90;;;;;;5027154;28;20194;-63
2020/12/11 06:12:45;;;;;;;1.70;0.20;;;2.70;99.90;;;;;;5026153;28;20213;-62
2020/12/11 06:15:20;;;;;;;1.70;0.20;;;2.70;99.90;;;;;;5030329;28;20193;-63
2020/12/11 06:18:05;;;;;;;1.70;0.20;;;2.70;99.90;;;;;;5025670;28;20797;-63
2020/12/11 06:20:31;;;;;;;1.70;0.20;;;2.60;99.90;;;;;;5026363;28;20296;-63
2020/12/11 06:23:22;;;;;;;1.90;0.77;;;2.60;99.90;;;;;;5030161;28;20201;-63
2020/12/11 06:25:52;;;;;;;1.92;0.75;;;2.50;99.90;;;;;;5027889;28;20181;-63
2020/12/11 06:28:40;;;;;;;1.73;0.20;;;2.50;99.90;;;;;;5025945;28;20189;-63
2020/12/11 06:31:08;;;;;;;1.70;0.20;;;2.40;99.90;;;;;;5026371;28;20186;-63
2020/12/11 06:33:35;;;;;;;1.70;0.20;;;2.50;99.90;;;;;;5024402;28;20206;-63
2020/12/11 06:36:03;;;;;;;1.70;0.20;;;2.50;99.90;;;;;;5024918;28;20581;-63
2020/12/11 06:38:49;;;;;;;1.70;0.20;;;2.50;99.90;;;;;;5029227;28;20178;-62
2020/12/11 06:41:34;;;;;;;1.70;0.30;;;2.60;99.90;;;;;;5029776;28;20170;-63
2020/12/11 06:44:09;;;;;;;1.70;0.20;;;2.60;99.90;;;;;;5027796;28;20201;-63
2020/12/11 06:46:34;;;;;;;1.70;0.20;;;2.70;99.90;;;;;;5030415;28;20185;-63
2020/12/11 06:49:10;;;;;;;1.70;0.20;;;2.80;99.90;;;;;;5029637;28;20197;-63
2020/12/11 06:51:56;;;;;;;1.80;0.30;;;2.90;99.90;;;;;;5022286;28;20549;-63
2020/12/11 06:54:21;;;;;;;1.73;0.20;;;2.90;99.90;;;;;;5022385;28;20412;-63
2020/12/11 06:56:53;;;;;;;1.90;0.73;;;2.90;99.90;;;;;;5029321;28;20189;-63
2020/12/11 06:59:27;;;;;;;1.70;0.20;;;2.90;99.90;;;;;;5032961;28;20186;-63
2020/12/11 07:02:18;;;;;;;1.73;0.35;;;2.90;99.90;;;;;;5018802;28;20214;-63
2020/12/11 07:04:50;;;;;;;1.70;0.30;;;2.90;99.90;;;;;;5020847;28;20175;-63
2020/12/11 07:07:18;;;;;;;1.70;0.20;;;2.90;99.90;;;;;;5023356;28;20214;-64
2020/12/11 07:09:46;;;;;;;1.70;0.20;;;2.90;99.90;;;;;;5024545;28;20823;-62
2020/12/11 07:12:15;;;;;;;2.42;1.42;;;3.00;99.90;;;;;;5029107;28;20683;-63
2020/12/11 07:14:45;;;;;;;1.70;0.20;;;3.00;99.90;;;;;;5030120;28;20189;-62
2020/12/11 07:17:10;;;;;;;1.70;0.20;;;3.00;99.90;;;;;;5030472;28;20261;-62
2020/12/11 07:19:39;;;;;;;1.90;0.70;;;3.10;99.90;;;;;;5028730;28;20917;-63
2020/12/11 07:22:05;;;;;;;1.90;0.20;;;3.10;99.90;;;;;;5021302;28;20206;-62
2020/12/11 07:24:35;;;;;;;2.03;0.73;;;3.10;99.90;;;;;;5024812;28;20296;-63
2020/12/11 07:27:03;;;;;;;1.70;0.20;;;3.10;99.90;;;;;;5025770;28;20245;-65
2020/12/11 07:29:29;;;;;;;1.70;0.20;;;3.10;99.90;;;;;;5033073;28;20204;-63
2020/12/11 07:31:55;;;;;;;2.43;1.70;;;3.20;99.90;;;;;;5022789;28;20297;-63
2020/12/11 07:34:23;;;;;;;1.73;0.20;;;3.20;99.90;;;;;;5029364;28;20236;-63
2020/12/11 07:36:54;;;;;;;1.70;0.20;;;3.20;99.90;;;;;;5020330;28;20206;-63
2020/12/11 07:39:24;;;;;;;1.70;0.30;;;3.20;99.90;;;;;;5024573;28;20189;-62
2020/12/11 07:41:51;;;;;;;1.70;0.20;;;3.30;99.90;;;;;;5030074;28;20684;-62
2020/12/11 07:44:28;;;;;;;1.73;0.20;;;3.30;99.90;;;;;;5024556;28;20240;-62
2020/12/11 07:46:55;;;;;;;1.70;0.20;;;3.30;99.90;;;;;;5025433;28;20181;-62
2020/12/11 07:49:21;;;;;;;1.70;0.20;;;3.40;99.90;;;;;;5029951;28;20174;-63
2020/12/11 07:51:49;;;;;;;1.70;0.20;;;3.40;99.90;;;;;;5019847;28;20259;-63
2020/12/11 07:54:15;;;;;;;4.55;3.50;;;3.50;99.90;;;;;;5018915;28;20217;-63
2020/12/11 07:56:41;;;;;;;1.70;0.20;;;3.50;99.90;;;;;;5034594;28;21467;-63
2020/12/11 07:59:14;;;;;;;2.33;2.10;;;3.60;99.90;;;;;;5026683;28;20193;-64
2020/12/11 08:01:46;;;;;;;1.70;0.20;;;3.60;99.90;;;;;;5054941;23;20487;-62
2020/12/11 08:04:12;;;;;;;1.73;0.20;;;3.70;99.90;;;;;;5045627;28;20189;-61
2020/12/11 08:06:38;;;;;;;1.70;0.20;;;3.70;99.90;;;;;;5045434;28;20190;-61
2020/12/11 08:09:13;;;;;;;1.77;0.30;;;3.80;99.90;;;;;;5046536;28;20239;-61
2020/12/11 08:11:42;;;;;;;1.70;0.20;;;3.90;99.90;;;;;;5034839;28;20209;-62
2020/12/11 08:14:08;;;;;;;1.70;0.20;;;3.90;99.90;;;;;;5024119;28;20210;-61
2020/12/11 08:16:34;;;;;;;1.70;0.20;;;3.90;99.90;;;;;;5023481;28;20190;-61
2020/12/11 08:19:01;;;;;;;1.70;0.20;;;4.00;99.90;;;;;;5025214;28;20540;-60
2020/12/11 08:21:33;;;;;;;1.70;0.20;;;3.90;99.90;;;;;;5034057;28;20245;-60
2020/12/11 08:23:59;;;;;;;1.70;0.20;;;3.90;99.90;;;;;;5030067;28;20274;-61
2020/12/11 08:26:36;;;;;;;3.63;3.33;;;3.90;99.90;;;;;;5031112;28;20178;-58
2020/12/11 08:29:06;;;;;;;1.70;0.20;;;3.90;99.90;;;;;;5029347;28;20651;-60
2020/12/11 08:31:42;;;;;;;1.70;0.20;;;4.00;99.90;;;;;;5028432;28;20209;-60
2020/12/11 08:34:13;;;;;;;1.70;0.20;;;4.00;99.90;;;;;;5030176;28;20236;-60
2020/12/11 08:36:46;;;;;;;1.70;0.20;;;4.10;99.90;;;;;;5031067;28;20182;-61
2020/12/11 08:39:19;;;;;;;1.70;0.20;;;4.10;99.90;;;;;;5024187;28;20186;-61
2020/12/11 08:42:05;;;;;;;1.70;0.30;;;4.10;99.90;;;;;;5031645;28;20691;-60
2020/12/11 08:50:09;;;;;;;1.70;0.20;;;4.10;99.90;;;;;;4993770;28;20212;-61
2020/12/11 08:52:35;;;;;;;1.70;0.20;;;4.10;99.90;;;;;;5036853;28;20235;-60
2020/12/11 08:55:00;;;;;;;1.70;0.20;;;4.10;99.90;;;;;;5035210;28;20265;-61
2020/12/11 08:57:30;;;;;;;1.90;1.00;;;4.20;99.90;;;;;;5034086;28;20197;-61
2020/12/11 08:59:55;;;;;;;1.70;0.20;;;4.30;99.90;;;;;;5044277;28;20185;-62
2020/12/11 09:02:21;;;;;;;1.70;0.20;;;4.30;99.90;;;;;;5052811;28;20178;-61
2020/12/11 09:04:46;;;;;;;1.70;0.20;;;4.30;99.90;;;;;;5049366;28;20186;-61
2020/12/11 09:07:12;;;;;;;1.80;0.43;;;4.30;99.90;;;;;;5039645;28;20181;-60
2020/12/11 09:09:38;;;;;;;1.70;0.20;;;4.20;99.90;;;;;;5030971;28;20191;-60
2020/12/11 09:12:04;;;;;;;1.70;0.20;;;4.20;99.90;;;;;;5033414;28;20200;-67
2020/12/11 09:14:29;;;;;;;1.70;0.20;;;4.30;99.90;;;;;;5039606;28;20336;-60
2020/12/11 09:16:55;;;;;;;1.70;0.20;;;4.30;99.90;;;;;;5032250;28;20530;-60
2020/12/11 09:19:21;;;;;;;1.70;0.20;;;4.30;99.90;;;;;;5030574;28;20194;-61
2020/12/11 09:21:47;;;;;;;1.70;0.20;;;4.40;99.90;;;;;;5028918;28;20202;-60
2020/12/11 09:24:13;;;;;;;1.70;0.20;;;4.50;99.90;;;;;;5032423;28;20217;-61
2020/12/11 09:26:39;;;;;;;1.70;0.20;;;4.40;99.90;;;;;;5032310;28;20237;-60
2020/12/11 09:29:24;;;;;;;1.70;0.20;;;4.40;99.90;;;;;;5030416;28;20914;-61
2020/12/11 09:31:50;;;;;;;1.70;0.20;;;4.40;99.90;;;;;;5031567;28;20461;-60
2020/12/11 09:34:15;;;;;;;1.70;0.20;;;4.40;99.90;;;;;;5033010;28;20217;-61
2020/12/11 09:36:42;;;;;;;1.70;0.20;;;4.40;99.90;;;;;;5036189;28;20186;-61
2020/12/11 09:39:08;;;;;;;2.97;1.48;;;4.50;99.90;;;;;;5025479;28;20190;-61
2020/12/11 09:41:43;;;;;;;1.70;0.20;;;4.60;99.90;;;;;;5039664;28;20555;-61
2020/12/11 09:50:02;;;;;;;1.70;0.20;;;4.80;99.90;;;;;;5030905;28;20619;-61
2020/12/11 09:52:46;;;;;;;1.70;0.20;;;4.80;99.90;;;;;;5032416;28;20272;-61
2020/12/11 09:55:12;;;;;;;1.70;0.20;;;4.90;99.90;;;;;;5034879;28;20186;-61
2020/12/11 09:57:38;;;;;;;1.70;0.20;;;4.90;99.90;;;;;;5027515;28;20209;-61
2020/12/11 10:00:05;;;;;;;1.70;0.20;;;4.90;99.90;;;;;;5028396;28;20599;-60
2020/12/11 10:04:56;;;;;;;1.70;0.20;;;5.00;99.90;;;;;;5031555;28;20189;-60
2020/12/11 10:07:22;;;;;;;1.80;0.40;;;5.10;99.90;;;;;;5035425;28;20190;-60
2020/12/11 10:09:47;;;;;;;1.70;0.20;;;5.10;99.90;;;;;;5035663;28;20220;-60
2020/12/11 10:12:13;;;;;;;1.70;0.20;;;5.20;99.90;;;;;;5035901;28;20182;-61
2020/12/11 10:14:42;;;;;;;1.70;0.20;;;5.20;99.90;;;;;;5036226;28;20734;-61
2020/12/11 10:17:09;;;;;;;2.10;1.20;;;5.20;99.90;;;;;;5028600;28;20448;-60
2020/12/11 10:19:35;;;;;;;1.70;0.20;;;5.20;99.90;;;;;;5033252;28;20185;-61
2020/12/11 10:22:00;;;;;;;1.70;0.20;;;5.20;99.90;;;;;;5032008;28;20206;-60
2020/12/11 10:24:26;;;;;;;1.70;0.20;;;5.20;99.90;;;;;;5029204;28;20195;-61
2020/12/11 10:26:51;;;;;;;2.83;1.63;;;5.20;99.90;;;;;;5031723;28;20196;-61
2020/12/11 10:29:17;;;;;;;1.70;0.20;;;5.20;99.90;;;;;;5030327;28;20283;-61
2020/12/11 10:31:44;;;;;;;1.70;0.20;;;5.20;99.90;;;;;;5029499;28;20222;-61
2020/12/11 10:34:14;;;;;;;1.70;0.20;;;5.30;99.90;;;;;;5030961;28;20292;-61
2020/12/11 10:36:41;;;;;;;1.70;0.20;;;5.30;99.90;;;;;;5026028;28;20174;-61
2020/12/11 10:39:07;;;;;;;1.70;0.20;;;5.30;99.90;;;;;;5030489;28;20585;-60
2020/12/11 10:41:33;;;;;;;1.70;0.20;;;5.30;99.90;;;;;;5036728;28;20285;-61
2020/12/11 10:43:58;;;;;;;1.70;0.20;;;5.30;99.90;;;;;;5029481;28;20221;-61
2020/12/11 10:46:24;;;;;;;1.70;0.20;;;5.30;99.90;;;;;;5028843;28;20189;-60
2020/12/11 10:48:49;;;;;;;1.70;0.20;;;5.40;99.90;;;;;;5030503;28;20185;-61
2020/12/11 10:51:16;;;;;;;1.70;0.20;;;5.30;99.90;;;;;;5029843;28;20234;-61
2020/12/11 10:53:42;;;;;;;1.70;0.20;;;5.30;99.90;;;;;;5031014;28;20290;-60
2020/12/11 10:56:12;;;;;;;1.70;0.20;;;5.30;99.90;;;;;;5031179;28;20209;-60
2020/12/11 10:58:39;;;;;;;1.70;0.20;;;5.30;99.90;;;;;;5032585;28;20178;-61
2020/12/11 11:01:10;;;;;;;1.70;0.20;;;5.20;99.90;;;;;;5034749;28;20217;-61
2020/12/11 11:03:37;;;;;;;1.70;0.20;;;5.10;99.90;;;;;;5037988;28;20189;-61
2020/12/11 11:06:16;;;;;;;1.70;0.20;;;5.10;99.90;;;;;;5030091;28;21012;-61
2020/12/11 11:11:52;;;;;;;1.70;0.20;;;5.20;99.90;;;;;;4973318;28;20350;-64
2020/12/11 11:14:48;;;;;;;2.38;1.38;;;5.20;99.90;;;;;;5017896;28;20224;-59
2020/12/11 11:28:00;;;;;;;1.73;0.27;;;5.30;99.90;;;;;;5028959;28;20444;-59
2020/12/11 11:30:26;;;;;;;1.70;0.20;;;5.30;99.90;;;;;;5036775;28;20221;-61
2020/12/11 11:32:53;;;;;;;1.70;0.20;;;5.30;99.90;;;;;;5035517;28;20208;-58
2020/12/11 11:35:19;;;;;;;1.70;0.20;;;5.40;99.90;;;;;;5026003;28;20436;-59
2020/12/11 11:37:45;;;;;;;1.70;0.20;;;5.40;99.90;;;;;;5027418;28;20193;-58
2020/12/11 11:40:11;;;;;;;1.80;0.20;;;5.40;99.90;;;;;;5023238;28;20472;-59
2020/12/11 11:42:36;;;;;;;1.80;0.20;;;5.50;99.90;;;;;;5030129;28;20434;-58
2020/12/11 11:45:05;;;;;;;1.70;0.20;;;5.50;99.90;;;;;;5035269;28;21270;-61
2020/12/11 11:47:31;;;;;;;1.90;0.77;;;5.50;99.90;;;;;;5031017;28;20240;-60
2020/12/11 11:52:44;;;;;;;1.80;0.50;;;5.60;99.90;;;;;;5030063;28;20472;-56
2020/12/11 11:55:11;;;;;;;1.70;0.20;;;5.70;99.90;;;;;;5027294;28;20455;-57
2020/12/11 11:57:38;;;;;;;1.90;0.50;;;5.70;99.90;;;;;;5025357;28;20974;-57
2020/12/11 12:00:08;;;;;;;1.70;0.20;;;5.80;99.90;;;;;;5027868;28;20456;-55
2020/12/11 12:02:34;;;;;;;1.70;0.20;;;5.70;99.90;;;;;;5028688;28;20429;-55
2020/12/11 12:05:01;;;;;;;3.43;0.97;;;5.70;99.90;;;;;;5031971;28;20970;-55
2020/12/11 12:07:27;;;;;;;1.70;0.20;;;5.70;99.90;;;;;;5028718;28;20441;-54
2020/12/11 12:09:53;;;;;;;1.70;0.20;;;5.60;99.90;;;;;;5029269;28;20453;-55
2020/12/11 12:12:18;;;;;;;3.38;2.97;;;5.60;99.90;;;;;;5029372;28;21127;-54
2020/12/11 12:14:46;;;;;;;1.77;0.30;;;5.50;99.90;;;;;;5028206;28;20206;-55
2020/12/11 12:17:12;;;;;;;1.70;0.20;;;5.50;99.90;;;;;;5026784;28;20182;-55
2020/12/11 12:19:42;;;;;;;1.80;0.20;;;5.40;99.90;;;;;;5034316;28;20232;-56
2020/12/11 12:29:56;;;;;;;1.70;0.20;;;5.60;99.90;;;;;;5029077;28;20218;-55
2020/12/11 12:32:26;;;;;;;3.70;0.57;;;5.60;99.90;;;;;;5025796;28;20467;-56
2020/12/11 12:35:04;;;;;;;1.70;0.20;;;5.70;99.90;;;;;;5031343;28;20209;-55
2020/12/11 12:37:43;;;;;;;1.70;0.20;;;5.70;99.90;;;;;;5039128;28;20209;-55
2020/12/11 12:40:46;;;;;;;1.70;0.20;;;5.70;99.90;;;;;;5030547;28;20289;-55
2020/12/11 12:45:32;;;;;;;1.70;0.20;;;5.80;99.90;;;;;;5028961;28;20950;-55
2020/12/11 12:47:58;;;;;;;1.70;0.20;;;5.80;99.90;;;;;;5031545;28;20188;-55
2020/12/11 12:50:24;;;;;;;2.00;1.07;;;5.90;99.90;;;;;;5025627;28;20210;-55
2020/12/11 12:52:49;;;;;;;2.83;1.43;;;6.00;99.90;;;;;;5027374;28;20206;-55
2020/12/11 12:55:18;;;;;;;1.70;0.20;;;6.00;99.90;;;;;;5029008;28;20186;-56
2020/12/11 12:57:54;;;;;;;2.00;0.47;;;6.00;99.90;;;;;;5029588;28;20225;-55
2020/12/11 13:00:28;;;;;;;2.97;0.80;;;6.00;99.90;;;;;;5029960;28;20515;-54
2020/12/11 13:05:31;;;;;;;1.70;0.20;;;6.00;99.90;;;;;;5030310;28;20463;-55
2020/12/11 13:07:57;;;;;;;1.70;0.20;;;5.90;99.90;;;;;;5024944;28;20436;-55
2020/12/11 13:10:23;;;;;;;1.77;0.20;;;6.00;99.90;;;;;;5029980;28;20464;-55
2020/12/11 13:12:49;;;;;;;1.70;0.20;;;5.90;99.90;;;;;;5029994;28;20249;-55
2020/12/11 13:15:15;;;;;;;1.70;0.20;;;5.90;99.90;;;;;;5024791;28;20664;-55
2020/12/11 13:17:41;;;;;;;1.70;0.20;;;5.90;99.90;;;;;;5027258;28;20435;-56
2020/12/11 13:20:10;;;;;;;1.73;0.20;;;5.90;99.90;;;;;;5035541;28;20460;-56
2020/12/11 13:27:45;;;;;;;1.70;0.20;;;6.00;99.90;;;;;;5030208;28;20193;-57
2020/12/11 13:30:12;;;;;;;1.77;0.20;;;5.90;99.90;;;;;;5027902;28;20456;-56
2020/12/11 13:32:38;;;;;;;1.70;0.20;;;5.90;99.90;;;;;;5024635;28;20182;-56
2020/12/11 13:35:04;;;;;;;1.70;0.20;;;5.90;99.90;;;;;;5022163;28;20453;-56
2020/12/11 13:37:30;;;;;;;1.70;0.20;;;6.00;99.90;;;;;;5026315;28;20220;-56
2020/12/11 13:40:00;;;;;;;1.80;0.50;;;5.90;99.90;;;;;;5030306;28;20432;-55
2020/12/11 13:42:26;;;;;;;1.70;0.20;;;6.00;99.90;;;;;;5034175;28;20539;-55
2020/12/11 13:44:52;;;;;;;1.70;0.20;;;5.90;99.90;;;;;;5041974;28;20453;-56
2020/12/11 13:47:18;;;;;;;1.70;0.20;;;5.90;99.90;;;;;;5031993;28;20502;-56
2020/12/11 13:49:44;;;;;;;1.70;0.20;;;5.90;99.90;;;;;;5036458;28;20436;-57